sensor_id;sensor_type;location;lat;lon;timestamp;pressure;altitude;pressure_sealevel;temperature;humidity
50105;BME280;47690;39.202;-77.198;2023-05-12T00:01:44;100381.94;;;51.75;7.70
50105;BME280;47690;39.202;-77.198;2023-05-12T00:04:13;100390.31;;;51.84;7.78
50105;BME280;47690;39.202;-77.198;2023-05-12T00:06:43;100385.28;;;52.38;8.07
50105;BME280;47690;39.202;-77.198;2023-05-12T00:09:13;100388.34;;;52.51;6.98
50105;BME280;47690;39.202;-77.198;2023-05-12T00:11:43;100378.28;;;52.46;7.10
50105;BME280;47690;39.202;-77.198;2023-05-12T00:14:14;100381.75;;;51.66;7.68
50105;BME280;47690;39.202;-77.198;2023-05-12T00:16:44;100382.06;;;51.45;7.78
50105;BME280;47690;39.202;-77.198;2023-05-12T00:19:19;100389.38;;;51.31;8.15
50105;BME280;47690;39.202;-77.198;2023-05-12T00:21:48;100391.41;;;51.44;7.71
50105;BME280;47690;39.202;-77.198;2023-05-12T00:24:17;100390.25;;;51.26;8.44
50105;BME280;47690;39.202;-77.198;2023-05-12T00:26:50;100400.56;;;51.15;8.55
50105;BME280;47690;39.202;-77.198;2023-05-12T00:29:23;100405.22;;;50.90;7.71
50105;BME280;47690;39.202;-77.198;2023-05-12T00:31:54;100414.09;;;50.82;8.35
50105;BME280;47690;39.202;-77.198;2023-05-12T00:34:37;100417.66;;;51.07;8.12
50105;BME280;47690;39.202;-77.198;2023-05-12T00:37:09;100424.56;;;51.04;8.13
50105;BME280;47690;39.202;-77.198;2023-05-12T00:39:50;100428.41;;;51.03;8.65
50105;BME280;47690;39.202;-77.198;2023-05-12T00:42:25;100433.63;;;51.00;7.87
50105;BME280;47690;39.202;-77.198;2023-05-12T00:44:58;100432.88;;;50.69;8.59
50105;BME280;47690;39.202;-77.198;2023-05-12T00:47:42;100440.59;;;50.62;8.63
50105;BME280;47690;39.202;-77.198;2023-05-12T00:50:22;100443.31;;;50.62;8.46
50105;BME280;47690;39.202;-77.198;2023-05-12T00:52:54;100442.38;;;50.48;7.99
50105;BME280;47690;39.202;-77.198;2023-05-12T00:55:28;100443.47;;;50.47;8.71
50105;BME280;47690;39.202;-77.198;2023-05-12T00:58:07;100442.13;;;50.09;8.86
50105;BME280;47690;39.202;-77.198;2023-05-12T01:00:48;100440.16;;;50.15;8.54
50105;BME280;47690;39.202;-77.198;2023-05-12T01:03:20;100446.03;;;49.98;8.57
50105;BME280;47690;39.202;-77.198;2023-05-12T01:05:54;100457.00;;;49.98;9.15
50105;BME280;47690;39.202;-77.198;2023-05-12T01:08:28;100457.31;;;49.86;9.01
50105;BME280;47690;39.202;-77.198;2023-05-12T01:11:02;100454.13;;;49.73;8.29
50105;BME280;47690;39.202;-77.198;2023-05-12T01:13:33;100457.16;;;49.67;8.46
50105;BME280;47690;39.202;-77.198;2023-05-12T01:16:06;100456.88;;;49.73;8.91
50105;BME280;47690;39.202;-77.198;2023-05-12T01:18:41;100462.34;;;49.73;9.17
50105;BME280;47690;39.202;-77.198;2023-05-12T01:21:18;100455.78;;;49.69;9.12
50105;BME280;47690;39.202;-77.198;2023-05-12T01:23:55;100456.69;;;49.49;8.69
50105;BME280;47690;39.202;-77.198;2023-05-12T01:26:30;100458.66;;;49.33;9.04
50105;BME280;47690;39.202;-77.198;2023-05-12T01:29:15;100461.69;;;49.31;9.25
50105;BME280;47690;39.202;-77.198;2023-05-12T01:32:17;100482.22;;;49.24;9.23
50105;BME280;47690;39.202;-77.198;2023-05-12T01:34:57;100474.84;;;49.14;8.69
50105;BME280;47690;39.202;-77.198;2023-05-12T01:37:38;100492.66;;;48.96;9.41
50105;BME280;47690;39.202;-77.198;2023-05-12T01:40:16;100483.94;;;48.99;9.05
50105;BME280;47690;39.202;-77.198;2023-05-12T01:42:48;100480.66;;;48.91;8.99
50105;BME280;47690;39.202;-77.198;2023-05-12T01:45:19;100485.56;;;48.84;8.87
50105;BME280;47690;39.202;-77.198;2023-05-12T01:47:50;100485.28;;;48.80;8.95
50105;BME280;47690;39.202;-77.198;2023-05-12T01:50:22;100485.28;;;48.86;8.76
50105;BME280;47690;39.202;-77.198;2023-05-12T01:52:53;100482.56;;;48.86;9.08
50105;BME280;47690;39.202;-77.198;2023-05-12T01:55:24;100478.72;;;48.81;9.56
50105;BME280;47690;39.202;-77.198;2023-05-12T01:57:56;100477.91;;;48.76;9.16
50105;BME280;47690;39.202;-77.198;2023-05-12T02:00:26;100487.19;;;48.44;9.53
50105;BME280;47690;39.202;-77.198;2023-05-12T02:02:58;100484.47;;;48.28;9.13
50105;BME280;47690;39.202;-77.198;2023-05-12T02:05:30;100483.34;;;48.24;9.50
50105;BME280;47690;39.202;-77.198;2023-05-12T02:08:01;100480.84;;;48.02;9.57
50105;BME280;47690;39.202;-77.198;2023-05-12T02:10:32;100481.91;;;47.95;9.23
50105;BME280;47690;39.202;-77.198;2023-05-12T02:13:05;100480.31;;;47.99;9.86
50105;BME280;47690;39.202;-77.198;2023-05-12T02:15:36;100475.41;;;48.07;9.71
50105;BME280;47690;39.202;-77.198;2023-05-12T02:18:18;100488.50;;;48.10;9.73
50105;BME280;47690;39.202;-77.198;2023-05-12T02:20:50;100489.56;;;47.93;9.57
50105;BME280;47690;39.202;-77.198;2023-05-12T02:23:25;100490.34;;;47.83;9.52
50105;BME280;47690;39.202;-77.198;2023-05-12T02:25:56;100495.66;;;48.32;9.32
50105;BME280;47690;39.202;-77.198;2023-05-12T02:28:28;100499.56;;;47.67;9.84
50105;BME280;47690;39.202;-77.198;2023-05-12T02:30:58;100496.47;;;47.53;9.90
50105;BME280;47690;39.202;-77.198;2023-05-12T02:33:30;100497.78;;;47.40;10.04
50105;BME280;47690;39.202;-77.198;2023-05-12T02:36:03;100498.03;;;47.33;10.10
50105;BME280;47690;39.202;-77.198;2023-05-12T02:38:33;100489.25;;;47.31;9.95
50105;BME280;47690;39.202;-77.198;2023-05-12T02:41:04;100504.00;;;47.30;10.17
50105;BME280;47690;39.202;-77.198;2023-05-12T02:43:36;100501.19;;;47.14;10.06
50105;BME280;47690;39.202;-77.198;2023-05-12T02:46:06;100517.25;;;47.11;10.34
50105;BME280;47690;39.202;-77.198;2023-05-12T02:48:35;100510.75;;;47.17;9.79
50105;BME280;47690;39.202;-77.198;2023-05-12T02:51:13;100509.69;;;47.28;10.22
50105;BME280;47690;39.202;-77.198;2023-05-12T02:53:49;100505.38;;;47.32;10.15
50105;BME280;47690;39.202;-77.198;2023-05-12T02:56:21;100513.13;;;47.08;10.17
50105;BME280;47690;39.202;-77.198;2023-05-12T02:58:52;100502.47;;;47.01;9.69
50105;BME280;47690;39.202;-77.198;2023-05-12T03:01:22;100500.72;;;47.86;9.35
50105;BME280;47690;39.202;-77.198;2023-05-12T03:03:52;100498.25;;;47.26;9.63
50105;BME280;47690;39.202;-77.198;2023-05-12T03:06:22;100500.84;;;47.00;9.95
50105;BME280;47690;39.202;-77.198;2023-05-12T03:08:56;100491.69;;;47.22;9.67
50105;BME280;47690;39.202;-77.198;2023-05-12T03:11:26;100500.03;;;46.72;10.41
50105;BME280;47690;39.202;-77.198;2023-05-12T03:13:56;100494.59;;;46.72;10.16
50105;BME280;47690;39.202;-77.198;2023-05-12T03:16:27;100500.84;;;47.54;9.57
50105;BME280;47690;39.202;-77.198;2023-05-12T03:18:58;100498.34;;;46.99;10.12
50105;BME280;47690;39.202;-77.198;2023-05-12T03:21:29;100499.75;;;46.69;10.43
50105;BME280;47690;39.202;-77.198;2023-05-12T03:24:01;100504.75;;;46.55;10.55
50105;BME280;47690;39.202;-77.198;2023-05-12T03:26:31;100505.09;;;46.58;9.85
50105;BME280;47690;39.202;-77.198;2023-05-12T03:29:02;100506.47;;;46.61;10.38
50105;BME280;47690;39.202;-77.198;2023-05-12T03:31:32;100505.34;;;46.57;9.97
50105;BME280;47690;39.202;-77.198;2023-05-12T03:34:02;100505.03;;;46.53;10.49
50105;BME280;47690;39.202;-77.198;2023-05-12T03:36:32;100504.69;;;46.44;10.21
50105;BME280;47690;39.202;-77.198;2023-05-12T03:39:05;100501.66;;;48.34;9.32
50105;BME280;47690;39.202;-77.198;2023-05-12T03:41:40;100494.28;;;47.01;9.67
50105;BME280;47690;39.202;-77.198;2023-05-12T03:44:12;100501.03;;;46.61;9.81
50105;BME280;47690;39.202;-77.198;2023-05-12T03:46:46;100498.44;;;46.44;10.67
50105;BME280;47690;39.202;-77.198;2023-05-12T03:49:19;100497.75;;;46.31;10.42
50105;BME280;47690;39.202;-77.198;2023-05-12T03:51:49;100495.66;;;46.16;10.13
50105;BME280;47690;39.202;-77.198;2023-05-12T03:54:20;100491.31;;;46.15;10.33
50105;BME280;47690;39.202;-77.198;2023-05-12T03:56:52;100491.00;;;46.11;10.18
50105;BME280;47690;39.202;-77.198;2023-05-12T03:59:22;100489.75;;;45.97;10.21
50105;BME280;47690;39.202;-77.198;2023-05-12T04:01:54;100491.16;;;46.22;10.41
50105;BME280;47690;39.202;-77.198;2023-05-12T04:04:30;100496.38;;;46.06;10.75
50105;BME280;47690;39.202;-77.198;2023-05-12T04:07:04;100498.75;;;45.97;10.61
50105;BME280;47690;39.202;-77.198;2023-05-12T04:09:35;100502.59;;;45.79;10.57
50105;BME280;47690;39.202;-77.198;2023-05-12T04:12:08;100495.53;;;45.78;10.79
50105;BME280;47690;39.202;-77.198;2023-05-12T04:14:38;100494.22;;;45.81;10.68
50105;BME280;47690;39.202;-77.198;2023-05-12T04:17:13;100492.53;;;46.02;10.79
50105;BME280;47690;39.202;-77.198;2023-05-12T04:19:46;100494.53;;;45.85;10.21
50105;BME280;47690;39.202;-77.198;2023-05-12T04:22:17;100492.72;;;45.73;10.90
50105;BME280;47690;39.202;-77.198;2023-05-12T04:24:52;100485.50;;;45.62;10.25
50105;BME280;47690;39.202;-77.198;2023-05-12T04:27:24;100485.72;;;45.55;10.92
50105;BME280;47690;39.202;-77.198;2023-05-12T04:29:54;100486.03;;;45.59;10.59
50105;BME280;47690;39.202;-77.198;2023-05-12T04:32:24;100482.75;;;45.56;10.31
50105;BME280;47690;39.202;-77.198;2023-05-12T04:34:55;100483.06;;;45.60;10.35
50105;BME280;47690;39.202;-77.198;2023-05-12T04:37:25;100484.47;;;45.63;10.45
50105;BME280;47690;39.202;-77.198;2023-05-12T04:39:57;100481.66;;;45.58;10.98
50105;BME280;47690;39.202;-77.198;2023-05-12T04:42:26;100485.38;;;45.51;10.34
50105;BME280;47690;39.202;-77.198;2023-05-12T04:44:56;100481.84;;;45.51;10.19
50105;BME280;47690;39.202;-77.198;2023-05-12T04:47:27;100481.66;;;45.58;10.81
50105;BME280;47690;39.202;-77.198;2023-05-12T04:49:58;100479.81;;;45.41;10.84
50105;BME280;47690;39.202;-77.198;2023-05-12T04:52:31;100477.91;;;45.41;10.91
50105;BME280;47690;39.202;-77.198;2023-05-12T04:55:02;100472.31;;;45.31;10.69
50105;BME280;47690;39.202;-77.198;2023-05-12T04:57:32;100466.41;;;45.17;10.87
50105;BME280;47690;39.202;-77.198;2023-05-12T05:00:04;100468.75;;;45.08;11.15
50105;BME280;47690;39.202;-77.198;2023-05-12T05:02:37;100458.44;;;44.93;11.25
50105;BME280;47690;39.202;-77.198;2023-05-12T05:05:12;100456.88;;;44.97;10.91
50105;BME280;47690;39.202;-77.198;2023-05-12T05:07:46;100459.66;;;45.20;10.63
50105;BME280;47690;39.202;-77.198;2023-05-12T05:10:18;100469.88;;;45.74;10.13
50105;BME280;47690;39.202;-77.198;2023-05-12T05:12:50;100448.78;;;45.20;10.90
50105;BME280;47690;39.202;-77.198;2023-05-12T05:15:21;100451.06;;;45.28;10.48
50105;BME280;47690;39.202;-77.198;2023-05-12T05:17:50;100461.81;;;45.18;10.38
50105;BME280;47690;39.202;-77.198;2023-05-12T05:20:22;100456.13;;;45.19;10.37
50105;BME280;47690;39.202;-77.198;2023-05-12T05:22:56;100455.06;;;45.20;10.26
50105;BME280;47690;39.202;-77.198;2023-05-12T05:25:28;100454.09;;;45.09;10.64
50105;BME280;47690;39.202;-77.198;2023-05-12T05:27:58;100445.41;;;44.95;10.61
50105;BME280;47690;39.202;-77.198;2023-05-12T05:30:30;100445.50;;;44.83;10.69
50105;BME280;47690;39.202;-77.198;2023-05-12T05:33:01;100431.13;;;44.83;10.67
50105;BME280;47690;39.202;-77.198;2023-05-12T05:35:33;100433.09;;;44.87;11.02
50105;BME280;47690;39.202;-77.198;2023-05-12T05:38:02;100428.31;;;44.78;10.98
50105;BME280;47690;39.202;-77.198;2023-05-12T05:40:36;100419.34;;;44.77;11.19
50105;BME280;47690;39.202;-77.198;2023-05-12T05:43:20;100415.69;;;45.45;10.59
50105;BME280;47690;39.202;-77.198;2023-05-12T05:45:51;100417.03;;;45.03;10.35
50105;BME280;47690;39.202;-77.198;2023-05-12T05:48:22;100414.78;;;45.39;9.96
50105;BME280;47690;39.202;-77.198;2023-05-12T05:50:54;100409.53;;;45.33;10.10
50105;BME280;47690;39.202;-77.198;2023-05-12T05:53:24;100413.84;;;44.89;10.31
50105;BME280;47690;39.202;-77.198;2023-05-12T05:55:55;100411.88;;;44.67;10.76
50105;BME280;47690;39.202;-77.198;2023-05-12T05:58:27;100403.72;;;44.67;11.06
50105;BME280;47690;39.202;-77.198;2023-05-12T06:00:58;100396.97;;;44.70;11.16
50105;BME280;47690;39.202;-77.198;2023-05-12T06:03:32;100392.81;;;44.84;10.97
50105;BME280;47690;39.202;-77.198;2023-05-12T06:06:02;100383.63;;;44.51;10.45
50105;BME280;47690;39.202;-77.198;2023-05-12T06:08:33;100387.69;;;44.66;10.69
50105;BME280;47690;39.202;-77.198;2023-05-12T06:11:06;100377.88;;;44.65;10.64
50105;BME280;47690;39.202;-77.198;2023-05-12T06:13:38;100385.25;;;44.52;11.06
50105;BME280;47690;39.202;-77.198;2023-05-12T06:16:08;100382.88;;;44.56;10.99
50105;BME280;47690;39.202;-77.198;2023-05-12T06:18:41;100372.59;;;44.58;10.53
50105;BME280;47690;39.202;-77.198;2023-05-12T06:21:12;100367.00;;;44.47;10.85
50105;BME280;47690;39.202;-77.198;2023-05-12T06:23:46;100368.97;;;44.86;10.26
50105;BME280;47690;39.202;-77.198;2023-05-12T06:26:17;100369.97;;;44.63;10.75
50105;BME280;47690;39.202;-77.198;2023-05-12T06:28:52;100365.38;;;44.64;10.63
50105;BME280;47690;39.202;-77.198;2023-05-12T06:31:22;100363.03;;;44.55;10.76
50105;BME280;47690;39.202;-77.198;2023-05-12T06:33:53;100373.59;;;44.52;10.95
50105;BME280;47690;39.202;-77.198;2023-05-12T06:36:23;100370.72;;;44.41;10.60
50105;BME280;47690;39.202;-77.198;2023-05-12T06:38:54;100365.13;;;44.31;10.60
50105;BME280;47690;39.202;-77.198;2023-05-12T06:41:24;100363.41;;;44.25;10.48
50105;BME280;47690;39.202;-77.198;2023-05-12T06:43:58;100359.94;;;44.29;10.80
50105;BME280;47690;39.202;-77.198;2023-05-12T06:46:31;100356.56;;;44.22;11.05
50105;BME280;47690;39.202;-77.198;2023-05-12T06:49:02;100357.50;;;44.16;10.78
50105;BME280;47690;39.202;-77.198;2023-05-12T06:51:34;100342.50;;;43.96;10.96
50105;BME280;47690;39.202;-77.198;2023-05-12T06:54:09;100344.91;;;44.10;11.03
50105;BME280;47690;39.202;-77.198;2023-05-12T06:56:38;100339.22;;;43.94;11.00
50105;BME280;47690;39.202;-77.198;2023-05-12T06:59:12;100341.38;;;43.92;10.89
50105;BME280;47690;39.202;-77.198;2023-05-12T07:01:45;100342.19;;;43.92;10.82
50105;BME280;47690;39.202;-77.198;2023-05-12T07:04:18;100340.88;;;43.95;10.65
50105;BME280;47690;39.202;-77.198;2023-05-12T07:06:48;100344.25;;;43.85;11.25
50105;BME280;47690;39.202;-77.198;2023-05-12T07:09:18;100343.41;;;43.85;11.15
50105;BME280;47690;39.202;-77.198;2023-05-12T07:11:49;100339.41;;;43.87;10.80
50105;BME280;47690;39.202;-77.198;2023-05-12T07:14:20;100344.84;;;43.75;10.92
50105;BME280;47690;39.202;-77.198;2023-05-12T07:16:50;100338.97;;;43.78;10.97
50105;BME280;47690;39.202;-77.198;2023-05-12T07:19:22;100336.34;;;43.84;10.79
50105;BME280;47690;39.202;-77.198;2023-05-12T07:21:53;100345.91;;;43.86;11.26
50105;BME280;47690;39.202;-77.198;2023-05-12T07:24:25;100336.38;;;44.01;10.87
50105;BME280;47690;39.202;-77.198;2023-05-12T07:26:57;100343.03;;;44.10;11.11
50105;BME280;47690;39.202;-77.198;2023-05-12T07:29:27;100342.41;;;44.20;10.84
50105;BME280;47690;39.202;-77.198;2023-05-12T07:32:00;100348.19;;;44.24;10.50
50105;BME280;47690;39.202;-77.198;2023-05-12T07:34:33;100349.06;;;44.29;10.55
50105;BME280;47690;39.202;-77.198;2023-05-12T07:37:04;100345.09;;;44.03;10.54
50105;BME280;47690;39.202;-77.198;2023-05-12T07:39:36;100351.47;;;43.79;10.75
50105;BME280;47690;39.202;-77.198;2023-05-12T07:42:08;100351.94;;;43.76;11.03
50105;BME280;47690;39.202;-77.198;2023-05-12T07:44:49;100352.41;;;43.85;10.73
50105;BME280;47690;39.202;-77.198;2023-05-12T07:47:23;100352.41;;;43.73;10.96
50105;BME280;47690;39.202;-77.198;2023-05-12T07:49:58;100357.13;;;43.78;10.99
50105;BME280;47690;39.202;-77.198;2023-05-12T07:52:33;100359.91;;;43.54;10.74
50105;BME280;47690;39.202;-77.198;2023-05-12T07:55:02;100360.28;;;43.46;11.12
50105;BME280;47690;39.202;-77.198;2023-05-12T07:57:34;100359.47;;;43.33;11.16
50105;BME280;47690;39.202;-77.198;2023-05-12T08:00:05;100354.75;;;43.29;11.15
50105;BME280;47690;39.202;-77.198;2023-05-12T08:02:42;100352.06;;;43.29;11.08
50105;BME280;47690;39.202;-77.198;2023-05-12T08:05:17;100352.88;;;43.29;11.23
50105;BME280;47690;39.202;-77.198;2023-05-12T08:07:46;100357.03;;;43.20;11.04
50105;BME280;47690;39.202;-77.198;2023-05-12T08:10:19;100356.81;;;43.09;11.35
50105;BME280;47690;39.202;-77.198;2023-05-12T08:12:52;100346.91;;;43.03;11.47
50105;BME280;47690;39.202;-77.198;2023-05-12T08:15:22;100345.88;;;43.04;11.18
50105;BME280;47690;39.202;-77.198;2023-05-12T08:17:56;100349.78;;;42.96;11.18
50105;BME280;47690;39.202;-77.198;2023-05-12T08:20:26;100344.22;;;43.03;11.71
50105;BME280;47690;39.202;-77.198;2023-05-12T08:22:58;100354.44;;;42.89;11.18
50105;BME280;47690;39.202;-77.198;2023-05-12T08:25:32;100359.66;;;42.79;11.46
50105;BME280;47690;39.202;-77.198;2023-05-12T08:28:04;100351.41;;;42.73;11.44
50105;BME280;47690;39.202;-77.198;2023-05-12T08:30:35;100356.00;;;43.09;11.11
50105;BME280;47690;39.202;-77.198;2023-05-12T08:33:06;100361.03;;;42.69;11.28
50105;BME280;47690;39.202;-77.198;2023-05-12T08:35:38;100366.22;;;42.59;11.50
50105;BME280;47690;39.202;-77.198;2023-05-12T08:38:08;100366.34;;;42.52;11.50
50105;BME280;47690;39.202;-77.198;2023-05-12T08:41:10;100369.06;;;42.88;11.40
50105;BME280;47690;39.202;-77.198;2023-05-12T08:43:49;100366.81;;;42.73;11.32
50105;BME280;47690;39.202;-77.198;2023-05-12T08:46:21;100369.06;;;42.76;11.38
50105;BME280;47690;39.202;-77.198;2023-05-12T08:48:54;100363.22;;;43.44;11.18
50105;BME280;47690;39.202;-77.198;2023-05-12T08:51:28;100363.09;;;43.51;10.75
50105;BME280;47690;39.202;-77.198;2023-05-12T08:54:03;100373.56;;;43.06;11.15
50105;BME280;47690;39.202;-77.198;2023-05-12T08:56:35;100370.84;;;42.82;11.28
50105;BME280;47690;39.202;-77.198;2023-05-12T08:59:08;100372.59;;;42.77;11.57
50105;BME280;47690;39.202;-77.198;2023-05-12T09:01:42;100373.31;;;42.96;11.17
50105;BME280;47690;39.202;-77.198;2023-05-12T09:04:18;100371.06;;;42.81;11.08
50105;BME280;47690;39.202;-77.198;2023-05-12T09:06:49;100373.28;;;42.72;11.18
50105;BME280;47690;39.202;-77.198;2023-05-12T09:09:23;100368.22;;;44.40;10.59
50105;BME280;47690;39.202;-77.198;2023-05-12T09:11:57;100370.91;;;43.35;10.95
50105;BME280;47690;39.202;-77.198;2023-05-12T09:14:33;100373.78;;;43.05;10.96
50105;BME280;47690;39.202;-77.198;2023-05-12T09:17:09;100373.91;;;42.98;11.37
50105;BME280;47690;39.202;-77.198;2023-05-12T09:19:48;100374.34;;;43.07;11.25
50105;BME280;47690;39.202;-77.198;2023-05-12T09:22:30;100374.28;;;43.02;11.23
50105;BME280;47690;39.202;-77.198;2023-05-12T09:25:18;100376.00;;;43.20;11.27
50105;BME280;47690;39.202;-77.198;2023-05-12T09:27:53;100378.38;;;43.04;11.20
50105;BME280;47690;39.202;-77.198;2023-05-12T09:30:33;100382.50;;;43.19;11.21
50105;BME280;47690;39.202;-77.198;2023-05-12T09:33:09;100376.59;;;42.86;11.10
50105;BME280;47690;39.202;-77.198;2023-05-12T09:35:45;100378.13;;;42.70;11.41
50105;BME280;47690;39.202;-77.198;2023-05-12T09:38:16;100384.34;;;42.58;11.21
50105;BME280;47690;39.202;-77.198;2023-05-12T09:40:53;100383.06;;;42.61;11.65
50105;BME280;47690;39.202;-77.198;2023-05-12T09:43:25;100375.13;;;42.48;11.48
50105;BME280;47690;39.202;-77.198;2023-05-12T09:46:06;100385.88;;;42.54;11.41
50105;BME280;47690;39.202;-77.198;2023-05-12T09:48:49;100390.13;;;42.62;11.25
50105;BME280;47690;39.202;-77.198;2023-05-12T09:51:22;100382.94;;;42.56;11.24
50105;BME280;47690;39.202;-77.198;2023-05-12T09:53:54;100381.38;;;42.48;11.35
50105;BME280;47690;39.202;-77.198;2023-05-12T09:56:27;100384.50;;;42.33;11.42
50105;BME280;47690;39.202;-77.198;2023-05-12T09:59:00;100387.34;;;42.38;11.66
50105;BME280;47690;39.202;-77.198;2023-05-12T10:01:33;100386.78;;;42.36;11.31
50105;BME280;47690;39.202;-77.198;2023-05-12T10:04:06;100382.41;;;42.35;11.25
50105;BME280;47690;39.202;-77.198;2023-05-12T10:06:42;100393.47;;;42.34;11.46
50105;BME280;47690;39.202;-77.198;2023-05-12T10:09:32;100391.72;;;42.51;11.40
50105;BME280;47690;39.202;-77.198;2023-05-12T10:12:08;100397.38;;;42.38;11.40
50105;BME280;47690;39.202;-77.198;2023-05-12T10:14:42;100398.75;;;42.28;11.33
50105;BME280;47690;39.202;-77.198;2023-05-12T10:17:18;100408.41;;;42.24;11.47
50105;BME280;47690;39.202;-77.198;2023-05-12T10:19:49;100402.38;;;42.22;11.42
50105;BME280;47690;39.202;-77.198;2023-05-12T10:22:21;100399.38;;;42.42;11.15
50105;BME280;47690;39.202;-77.198;2023-05-12T10:24:53;100395.13;;;42.46;11.32
50105;BME280;47690;39.202;-77.198;2023-05-12T10:27:32;100394.66;;;42.38;11.51
50105;BME280;47690;39.202;-77.198;2023-05-12T10:30:08;100407.47;;;42.30;11.65
50105;BME280;47690;39.202;-77.198;2023-05-12T10:32:53;100414.97;;;42.28;11.49
50105;BME280;47690;39.202;-77.198;2023-05-12T10:35:31;100412.75;;;42.25;11.58
50105;BME280;47690;39.202;-77.198;2023-05-12T10:43:25;100424.50;;;42.19;11.57
50105;BME280;47690;39.202;-77.198;2023-05-12T10:49:10;100420.19;;;42.42;11.32
50105;BME280;47690;39.202;-77.198;2023-05-12T10:51:51;100430.94;;;42.49;11.51
50105;BME280;47690;39.202;-77.198;2023-05-12T10:54:25;100425.84;;;42.40;11.42
50105;BME280;47690;39.202;-77.198;2023-05-12T10:56:58;100430.28;;;42.35;11.47
50105;BME280;47690;39.202;-77.198;2023-05-12T10:59:34;100438.22;;;42.48;11.50
50105;BME280;47690;39.202;-77.198;2023-05-12T11:02:23;100435.13;;;42.75;11.81
50105;BME280;47690;39.202;-77.198;2023-05-12T11:05:02;100437.84;;;42.75;11.39
50105;BME280;47690;39.202;-77.198;2023-05-12T11:07:36;100436.19;;;42.86;11.43
50105;BME280;47690;39.202;-77.198;2023-05-12T11:10:08;100443.00;;;42.77;11.25
50105;BME280;47690;39.202;-77.198;2023-05-12T11:12:44;100444.53;;;42.72;11.68
50105;BME280;47690;39.202;-77.198;2023-05-12T11:15:25;100450.69;;;42.92;11.61
50105;BME280;47690;39.202;-77.198;2023-05-12T11:18:05;100461.53;;;43.04;11.41
50105;BME280;47690;39.202;-77.198;2023-05-12T11:20:38;100458.59;;;43.05;11.25
50105;BME280;47690;39.202;-77.198;2023-05-12T11:23:26;100472.84;;;43.12;11.27
50105;BME280;47690;39.202;-77.198;2023-05-12T11:26:02;100466.81;;;43.10;11.15
50105;BME280;47690;39.202;-77.198;2023-05-12T11:28:58;100469.78;;;43.33;11.44
50105;BME280;47690;39.202;-77.198;2023-05-12T11:31:33;100464.94;;;43.35;11.22
50105;BME280;47690;39.202;-77.198;2023-05-12T11:34:12;100462.94;;;43.54;11.42
50105;BME280;47690;39.202;-77.198;2023-05-12T11:36:46;100470.72;;;43.50;11.24
50105;BME280;47690;39.202;-77.198;2023-05-12T11:39:21;100466.34;;;43.49;11.33
50105;BME280;47690;39.202;-77.198;2023-05-12T11:42:06;100465.59;;;43.66;11.48
50105;BME280;47690;39.202;-77.198;2023-05-12T11:44:51;100473.97;;;43.88;11.06
50105;BME280;47690;39.202;-77.198;2023-05-12T11:47:28;100469.06;;;44.02;10.83
50105;BME280;47690;39.202;-77.198;2023-05-12T11:50:02;100481.88;;;44.19;11.04
50105;BME280;47690;39.202;-77.198;2023-05-12T11:52:38;100484.59;;;44.19;11.06
50105;BME280;47690;39.202;-77.198;2023-05-12T11:55:23;100487.31;;;44.48;11.46
50105;BME280;47690;39.202;-77.198;2023-05-12T11:58:05;100495.81;;;44.40;11.29
50105;BME280;47690;39.202;-77.198;2023-05-12T12:00:42;100496.59;;;44.52;11.48
50105;BME280;47690;39.202;-77.198;2023-05-12T12:03:25;100496.69;;;45.65;10.30
50105;BME280;47690;39.202;-77.198;2023-05-12T12:05:59;100501.00;;;44.87;10.97
50105;BME280;47690;39.202;-77.198;2023-05-12T12:08:57;100510.84;;;45.06;11.16
50105;BME280;47690;39.202;-77.198;2023-05-12T12:11:33;100498.59;;;45.25;10.72
50105;BME280;47690;39.202;-77.198;2023-05-12T12:14:05;100493.06;;;46.87;10.68
50105;BME280;47690;39.202;-77.198;2023-05-12T12:16:37;100496.34;;;46.01;10.89
50105;BME280;47690;39.202;-77.198;2023-05-12T12:19:09;100505.31;;;46.24;10.50
50105;BME280;47690;39.202;-77.198;2023-05-12T12:21:50;100507.19;;;45.79;11.54
50105;BME280;47690;39.202;-77.198;2023-05-12T12:24:25;100499.63;;;46.91;10.58
50105;BME280;47690;39.202;-77.198;2023-05-12T12:26:58;100507.84;;;49.48;9.32
50105;BME280;47690;39.202;-77.198;2023-05-12T12:29:31;100514.50;;;48.38;9.65
50105;BME280;47690;39.202;-77.198;2023-05-12T12:32:04;100508.75;;;49.13;9.63
50105;BME280;47690;39.202;-77.198;2023-05-12T12:34:37;100522.44;;;48.30;10.23
50105;BME280;47690;39.202;-77.198;2023-05-12T12:37:06;100519.13;;;48.27;10.31
50105;BME280;47690;39.202;-77.198;2023-05-12T12:39:43;100520.22;;;48.42;10.13
50105;BME280;47690;39.202;-77.198;2023-05-12T12:42:20;100516.19;;;48.55;10.39
50105;BME280;47690;39.202;-77.198;2023-05-12T12:44:53;100513.44;;;48.71;10.70
50105;BME280;47690;39.202;-77.198;2023-05-12T12:47:23;100508.22;;;48.79;10.24
50105;BME280;47690;39.202;-77.198;2023-05-12T12:49:55;100507.56;;;47.94;10.66
50105;BME280;47690;39.202;-77.198;2023-05-12T12:52:30;100507.19;;;47.70;11.22
50105;BME280;47690;39.202;-77.198;2023-05-12T12:55:02;100507.19;;;47.70;11.68
50105;BME280;47690;39.202;-77.198;2023-05-12T12:57:33;100513.00;;;47.79;11.73
50105;BME280;47690;39.202;-77.198;2023-05-12T13:00:04;100512.09;;;48.68;11.25
50105;BME280;47690;39.202;-77.198;2023-05-12T13:02:38;100513.41;;;48.34;11.42
50105;BME280;47690;39.202;-77.198;2023-05-12T13:05:26;100507.97;;;48.60;11.63
50105;BME280;47690;39.202;-77.198;2023-05-12T13:08:32;100507.63;;;49.29;11.74
50105;BME280;47690;39.202;-77.198;2023-05-12T13:11:04;100502.75;;;49.00;11.59
50105;BME280;47690;39.202;-77.198;2023-05-12T13:14:33;100513.63;;;49.47;11.04
50105;BME280;47690;39.202;-77.198;2023-05-12T13:17:57;100509.50;;;49.44;10.93